Time;durP1;ratioP1;P1;durP2;ratioP2;P2;SDS_P1;SDS_P2;PMS_P1;PMS_P2;Temp;Humidity;BMP_temperature;BMP_pressure;BME280_temperature;BME280_humidity;BME280_pressure;Samples;Min_cycle;Max_cycle;Signal;HPM_P1;HPM_P2
2022/01/13 00:02:25;;;;;;;;;;;;;;;;;;5058660;28;1092;-79
2022/01/13 00:04:53;;;;;;;;;;;;;;;;;;5050934;28;1254;-78
2022/01/13 00:07:18;;;;;;;;;;;;;;;;;;5067546;28;1125;-79
2022/01/13 00:09:44;;;;;;;;;;;;;;;;;;5063087;28;1235;-79
2022/01/13 00:12:10;;;;;;;;;;;;;;;;;;5064753;28;1302;-79
2022/01/13 00:19:49;;;;;;;;;;;;;;;;;;5058118;28;1881;-78
2022/01/13 00:24:59;;;;;;;;;;;;;;;;;;5067863;28;1147;-79
2022/01/13 00:27:27;;;;;;;;;;;;;;;;;;5076235;28;1197;-80
2022/01/13 00:29:57;;;;;;;;;;;;;;;;;;5063865;28;1249;-79
2022/01/13 00:32:25;;;;;;;;;;;;;;;;;;5045440;28;1449;-79
2022/01/13 00:34:53;;;;;;;;;;;;;;;;;;5066809;28;1136;-78
2022/01/13 00:37:18;;;;;;;;;;;;;;;;;;5065449;28;1226;-78
2022/01/13 00:39:44;;;;;;;;;;;;;;;;;;5059392;28;1906;-78
2022/01/13 00:42:09;;;;;;;;;;;;;;;;;;5073306;28;1144;-79
2022/01/13 00:44:37;;;;;;;;;;;;;;;;;;5086809;28;1168;-79
2022/01/13 00:47:04;;;;;;;;;;;;;;;;;;5045382;28;1253;-78
2022/01/13 00:49:30;;;;;;;;;;;;;;;;;;5063999;28;1276;-79
2022/01/13 00:51:56;;;;;;;;;;;;;;;;;;5057842;28;1356;-79
2022/01/13 00:54:21;;;;;;;;;;;;;;;;;;5057578;28;1340;-80
2022/01/13 00:56:47;;;;;;;;;;;;;;;;;;5075915;28;1269;-80
2022/01/13 00:59:13;;;;;;;;;;;;;;;;;;5069266;28;1898;-80
2022/01/13 01:01:49;;;;;;;;;;;;;;;;;;5077703;28;1173;-80
2022/01/13 01:04:15;;;;;;;;;;;;;;;;;;5065845;28;1144;-80
2022/01/13 01:06:40;;;;;;;;;;;;;;;;;;5063446;28;1231;-80
2022/01/13 01:09:12;;;;;;;;;;;;;;;;;;5065637;28;1261;-79
2022/01/13 01:11:37;;;;;;;;;;;;;;;;;;5063290;28;1171;-80
2022/01/13 01:14:06;;;;;;;;;;;;;;;;;;5056861;28;1212;-80
2022/01/13 01:16:33;;;;;;;;;;;;;;;;;;5062269;28;1179;-80
2022/01/13 01:19:05;;;;;;;;;;;;;;;;;;5050240;28;1971;-78
2022/01/13 01:24:14;;;;;;;;;;;;;;;;;;5087850;28;1152;-80
2022/01/13 01:29:40;;;;;;;;;;;;;;;;;;5077486;28;1040;-79
2022/01/13 01:32:10;;;;;;;;;;;;;;;;;;5069955;28;1214;-80
2022/01/13 01:34:55;;;;;;;;;;;;;;;;;;5065732;28;1223;-79
2022/01/13 01:37:28;;;;;;;;;;;;;;;;;;5083135;28;1147;-79
2022/01/13 01:39:54;;;;;;;;;;;;;;;;;;5085004;28;1983;-79
2022/01/13 01:42:24;;;;;;;;;;;;;;;;;;5085316;28;1348;-79
2022/01/13 01:44:53;;;;;;;;;;;;;;;;;;5074244;28;1532;-80
2022/01/13 01:47:24;;;;;;;;;;;;;;;;;;5067254;28;1175;-79
2022/01/13 01:49:53;;;;;;;;;;;;;;;;;;5070285;28;1155;-82
2022/01/13 01:52:19;;;;;;;;;;;;;;;;;;5086923;28;1183;-80
2022/01/13 01:54:44;;;;;;;;;;;;;;;;;;5086004;28;1052;-80
2022/01/13 01:57:09;;;;;;;;;;;;;;;;;;5068520;28;1251;-80
2022/01/13 01:59:38;;;;;;;;;;;;;;;;;;5083777;28;1952;-79
2022/01/13 02:02:04;;;;;;;;;;;;;;;;;;5079798;28;1231;-80
2022/01/13 02:04:31;;;;;;;;;;;;;;;;;;5080524;28;1300;-80
2022/01/13 02:06:59;;;;;;;;;;;;;;;;;;5083326;28;1447;-80
2022/01/13 02:09:27;;;;;;;;;;;;;;;;;;5084491;28;1218;-80
2022/01/13 02:11:56;;;;;;;;;;;;;;;;;;5084670;28;1187;-80
2022/01/13 02:16:55;;;;;;;;;;;;;;;;;;5081153;28;1071;-79
2022/01/13 02:19:26;;;;;;;;;;;;;;;;;;5068790;28;1889;-79
2022/01/13 02:21:52;;;;;;;;;;;;;;;;;;5079995;28;1345;-80
2022/01/13 02:24:17;;;;;;;;;;;;;;;;;;5065318;28;1203;-79
2022/01/13 02:26:43;;;;;;;;;;;;;;;;;;5067293;28;1243;-80
2022/01/13 02:29:08;;;;;;;;;;;;;;;;;;5084318;28;1178;-79
2022/01/13 02:31:43;;;;;;;;;;;;;;;;;;5064211;28;1286;-79
2022/01/13 02:34:08;;;;;;;;;;;;;;;;;;5084708;28;1209;-78
2022/01/13 02:36:37;;;;;;;;;;;;;;;;;;5075127;28;1646;-78
2022/01/13 02:39:04;;;;;;;;;;;;;;;;;;5064714;28;1910;-81
2022/01/13 02:41:32;;;;;;;;;;;;;;;;;;5061849;28;1182;-79
2022/01/13 02:44:00;;;;;;;;;;;;;;;;;;5064660;28;1219;-79
2022/01/13 02:49:00;;;;;;;;;;;;;;;;;;5063345;28;1100;-79
2022/01/13 02:51:35;;;;;;;;;;;;;;;;;;5041993;28;1192;-79
2022/01/13 02:54:00;;;;;;;;;;;;;;;;;;5061331;28;1344;-79
2022/01/13 02:56:36;;;;;;;;;;;;;;;;;;5063985;28;1186;-80
2022/01/13 02:59:01;;;;;;;;;;;;;;;;;;5068624;28;1894;-79
2022/01/13 03:01:36;;;;;;;;;;;;;;;;;;5068368;28;1192;-79
2022/01/13 03:04:06;;;;;;;;;;;;;;;;;;5086274;28;1192;-79
2022/01/13 03:06:35;;;;;;;;;;;;;;;;;;5070048;28;1301;-79
2022/01/13 03:09:01;;;;;;;;;;;;;;;;;;5087982;28;1168;-79
2022/01/13 03:14:18;;;;;;;;;;;;;;;;;;5086063;28;1330;-79
2022/01/13 03:16:44;;;;;;;;;;;;;;;;;;5059601;28;1195;-78
2022/01/13 03:19:10;;;;;;;;;;;;;;;;;;5065227;28;1889;-79
2022/01/13 03:21:36;;;;;;;;;;;;;;;;;;5068573;28;1187;-79
2022/01/13 03:24:05;;;;;;;;;;;;;;;;;;5071365;28;1242;-79
2022/01/13 03:26:33;;;;;;;;;;;;;;;;;;5070157;28;1229;-78
2022/01/13 03:31:35;;;;;;;;;;;;;;;;;;5083810;28;1080;-78
2022/01/13 03:34:01;;;;;;;;;;;;;;;;;;5086561;28;1203;-78
2022/01/13 03:36:27;;;;;;;;;;;;;;;;;;5064322;28;1294;-78
2022/01/13 03:38:53;;;;;;;;;;;;;;;;;;5067532;28;1910;-78
2022/01/13 03:41:19;;;;;;;;;;;;;;;;;;5072395;28;1232;-78
2022/01/13 03:43:44;;;;;;;;;;;;;;;;;;5066016;28;1317;-78
2022/01/13 03:46:11;;;;;;;;;;;;;;;;;;5064384;28;1191;-79
2022/01/13 03:48:36;;;;;;;;;;;;;;;;;;5045590;28;1365;-79
2022/01/13 03:51:01;;;;;;;;;;;;;;;;;;5050955;28;1302;-79
2022/01/13 03:53:26;;;;;;;;;;;;;;;;;;5051779;28;1304;-79
2022/01/13 03:56:10;;;;;;;;;;;;;;;;;;5065005;28;1194;-78
2022/01/13 03:58:42;;;;;;;;;;;;;;;;;;5065062;28;1317;-78
2022/01/13 04:01:07;;;;;;;;;;;;;;;;;;5076942;28;1937;-78
2022/01/13 04:03:33;;;;;;;;;;;;;;;;;;5084444;28;1349;-79
2022/01/13 04:05:59;;;;;;;;;;;;;;;;;;5068276;28;1227;-79
2022/01/13 04:08:24;;;;;;;;;;;;;;;;;;5068734;28;1324;-79
2022/01/13 04:10:53;;;;;;;;;;;;;;;;;;5068455;28;1230;-79
2022/01/13 04:13:44;;;;;;;;;;;;;;;;;;5066552;28;1225;-78
2022/01/13 04:16:10;;;;;;;;;;;;;;;;;;5063574;28;1237;-78
2022/01/13 04:18:38;;;;;;;;;;;;;;;;;;5072478;28;1329;-78
2022/01/13 04:21:04;;;;;;;;;;;;;;;;;;5085670;28;1947;-78
2022/01/13 04:23:29;;;;;;;;;;;;;;;;;;5087238;28;1128;-78
2022/01/13 04:25:55;;;;;;;;;;;;;;;;;;5083493;28;1326;-78
2022/01/13 04:28:27;;;;;;;;;;;;;;;;;;5087819;28;1167;-78
2022/01/13 04:31:00;;;;;;;;;;;;;;;;;;5082065;28;1286;-78
2022/01/13 04:33:25;;;;;;;;;;;;;;;;;;5085043;28;1155;-78
2022/01/13 04:35:51;;;;;;;;;;;;;;;;;;5079210;28;1199;-78
2022/01/13 04:38:16;;;;;;;;;;;;;;;;;;5069044;28;1209;-78
2022/01/13 04:40:44;;;;;;;;;;;;;;;;;;5079988;28;1951;-78
2022/01/13 04:43:10;;;;;;;;;;;;;;;;;;5074628;28;1333;-78
2022/01/13 04:45:35;;;;;;;;;;;;;;;;;;5081966;28;1136;-78
2022/01/13 04:48:01;;;;;;;;;;;;;;;;;;5075127;28;1475;-78
2022/01/13 04:50:28;;;;;;;;;;;;;;;;;;5063656;28;1331;-78
2022/01/13 04:52:53;;;;;;;;;;;;;;;;;;5074630;28;1316;-78
2022/01/13 04:55:25;;;;;;;;;;;;;;;;;;5078015;28;1285;-78
2022/01/13 04:57:51;;;;;;;;;;;;;;;;;;5074659;28;1211;-78
2022/01/13 05:00:16;;;;;;;;;;;;;;;;;;5072776;28;1943;-78
2022/01/13 05:02:42;;;;;;;;;;;;;;;;;;5050936;28;1156;-78
2022/01/13 05:05:07;;;;;;;;;;;;;;;;;;5062894;28;1227;-78
2022/01/13 05:07:33;;;;;;;;;;;;;;;;;;5059025;28;1392;-78
2022/01/13 05:09:58;;;;;;;;;;;;;;;;;;5082830;28;1124;-78
2022/01/13 05:12:29;;;;;;;;;;;;;;;;;;5066618;28;1205;-78
2022/01/13 05:14:58;;;;;;;;;;;;;;;;;;5072287;28;1083;-79
2022/01/13 05:20:16;;;;;;;;;;;;;;;;;;5064681;28;1949;-78
2022/01/13 05:23:01;;;;;;;;;;;;;;;;;;5064797;28;1299;-78
2022/01/13 05:25:27;;;;;;;;;;;;;;;;;;5063426;28;1337;-79
2022/01/13 05:27:52;;;;;;;;;;;;;;;;;;5065028;28;1183;-79
2022/01/13 05:30:18;;;;;;;;;;;;;;;;;;5067944;28;1160;-79
2022/01/13 05:32:47;;;;;;;;;;;;;;;;;;5069607;28;1217;-79
2022/01/13 05:35:15;;;;;;;;;;;;;;;;;;5083319;28;1203;-79
2022/01/13 05:37:50;;;;;;;;;;;;;;;;;;5087745;28;1287;-78
2022/01/13 05:40:16;;;;;;;;;;;;;;;;;;5077158;28;1918;-77
2022/01/13 05:42:45;;;;;;;;;;;;;;;;;;5064753;28;1140;-78
2022/01/13 05:45:16;;;;;;;;;;;;;;;;;;5064724;28;1245;-78
2022/01/13 05:47:42;;;;;;;;;;;;;;;;;;5075630;28;1147;-78
2022/01/13 05:50:12;;;;;;;;;;;;;;;;;;5080748;28;1148;-78
2022/01/13 05:52:38;;;;;;;;;;;;;;;;;;5085155;28;1224;-78
2022/01/13 05:55:04;;;;;;;;;;;;;;;;;;5083009;28;1017;-78
2022/01/13 05:57:30;;;;;;;;;;;;;;;;;;5084618;28;1284;-78
2022/01/13 05:59:55;;;;;;;;;;;;;;;;;;5084320;28;1890;-79
2022/01/13 06:02:20;;;;;;;;;;;;;;;;;;5083158;28;1135;-78
2022/01/13 06:04:47;;;;;;;;;;;;;;;;;;5081906;28;1191;-79
2022/01/13 06:07:12;;;;;;;;;;;;;;;;;;5067415;28;1283;-79
2022/01/13 06:09:38;;;;;;;;;;;;;;;;;;5066847;28;1263;-79
2022/01/13 06:12:04;;;;;;;;;;;;;;;;;;5082281;28;1330;-79
2022/01/13 06:14:29;;;;;;;;;;;;;;;;;;5067426;28;1325;-79
2022/01/13 06:16:55;;;;;;;;;;;;;;;;;;5082356;28;1179;-79
2022/01/13 06:19:20;;;;;;;;;;;;;;;;;;5082755;28;1890;-79
2022/01/13 06:21:47;;;;;;;;;;;;;;;;;;5066924;28;1333;-78
2022/01/13 06:24:13;;;;;;;;;;;;;;;;;;5083979;28;1293;-79
2022/01/13 06:26:38;;;;;;;;;;;;;;;;;;5082871;28;1292;-78
2022/01/13 06:29:03;;;;;;;;;;;;;;;;;;5083295;28;1092;-79
2022/01/13 06:31:28;;;;;;;;;;;;;;;;;;5082528;28;1254;-79
2022/01/13 06:33:54;;;;;;;;;;;;;;;;;;5081665;28;1281;-78
2022/01/13 06:36:19;;;;;;;;;;;;;;;;;;5085788;28;1144;-78
2022/01/13 06:38:48;;;;;;;;;;;;;;;;;;5067286;28;1258;-79
2022/01/13 06:41:14;;;;;;;;;;;;;;;;;;5082336;28;1965;-79
2022/01/13 06:43:39;;;;;;;;;;;;;;;;;;5084968;28;1179;-78
2022/01/13 06:46:05;;;;;;;;;;;;;;;;;;5065592;28;1184;-79
2022/01/13 06:48:30;;;;;;;;;;;;;;;;;;5045637;28;1218;-79
2022/01/13 06:50:55;;;;;;;;;;;;;;;;;;5062374;28;1186;-79
2022/01/13 06:53:21;;;;;;;;;;;;;;;;;;5064039;28;1191;-79
2022/01/13 06:55:47;;;;;;;;;;;;;;;;;;5066138;28;1172;-77
2022/01/13 06:58:12;;;;;;;;;;;;;;;;;;5063262;28;1192;-78
2022/01/13 07:00:38;;;;;;;;;;;;;;;;;;5060276;28;1916;-79
2022/01/13 07:03:04;;;;;;;;;;;;;;;;;;5063305;28;1282;-79
2022/01/13 07:05:29;;;;;;;;;;;;;;;;;;5073880;28;1195;-78
2022/01/13 07:07:57;;;;;;;;;;;;;;;;;;5064410;28;1287;-79
2022/01/13 07:10:23;;;;;;;;;;;;;;;;;;5082337;28;1292;-79
2022/01/13 07:12:48;;;;;;;;;;;;;;;;;;5081904;28;1259;-79
2022/01/13 07:15:14;;;;;;;;;;;;;;;;;;5081569;28;1211;-78
2022/01/13 07:17:39;;;;;;;;;;;;;;;;;;5079853;28;1206;-79
2022/01/13 07:20:05;;;;;;;;;;;;;;;;;;5060494;28;1976;-80
2022/01/13 07:22:31;;;;;;;;;;;;;;;;;;5066705;28;1175;-79
2022/01/13 07:24:57;;;;;;;;;;;;;;;;;;5062761;28;1140;-78
2022/01/13 07:27:22;;;;;;;;;;;;;;;;;;5061672;28;1502;-80
2022/01/13 07:29:48;;;;;;;;;;;;;;;;;;5061490;28;1160;-80
2022/01/13 07:32:15;;;;;;;;;;;;;;;;;;5057638;28;1417;-79
2022/01/13 07:34:40;;;;;;;;;;;;;;;;;;5041970;28;1266;-79
2022/01/13 07:37:05;;;;;;;;;;;;;;;;;;5040818;28;1202;-80
2022/01/13 07:39:31;;;;;;;;;;;;;;;;;;5045546;28;1937;-80
2022/01/13 07:41:58;;;;;;;;;;;;;;;;;;5081923;28;1084;-80
2022/01/13 07:44:23;;;;;;;;;;;;;;;;;;5082355;28;1167;-80
2022/01/13 07:46:49;;;;;;;;;;;;;;;;;;5081772;28;1157;-80
2022/01/13 07:49:14;;;;;;;;;;;;;;;;;;5061234;28;1199;-80
2022/01/13 07:51:39;;;;;;;;;;;;;;;;;;5064303;28;1162;-80
2022/01/13 07:54:04;;;;;;;;;;;;;;;;;;5063415;28;1220;-81
2022/01/13 07:56:30;;;;;;;;;;;;;;;;;;5066746;28;1069;-80
2022/01/13 07:58:59;;;;;;;;;;;;;;;;;;5073430;28;1135;-80
2022/01/13 08:01:25;;;;;;;;;;;;;;;;;;5064735;28;1275;-80
2022/01/13 08:03:53;;;;;;;;;;;;;;;;;;5083059;28;1353;-81
2022/01/13 08:06:18;;;;;;;;;;;;;;;;;;5083079;28;1130;-80
2022/01/13 08:08:43;;;;;;;;;;;;;;;;;;5072300;28;1187;-80
2022/01/13 08:11:09;;;;;;;;;;;;;;;;;;5063999;28;1148;-81
2022/01/13 08:13:35;;;;;;;;;;;;;;;;;;5066376;28;1202;-81
2022/01/13 08:16:07;;;;;;;;;;;;;;;;;;5061039;28;1382;-81
2022/01/13 08:21:16;;;;;;;;;;;;;;;;;;5064185;28;1917;-81
2022/01/13 08:23:41;;;;;;;;;;;;;;;;;;5067241;28;1148;-80
2022/01/13 08:26:07;;;;;;;;;;;;;;;;;;5062806;28;1214;-80
2022/01/13 08:28:32;;;;;;;;;;;;;;;;;;5049239;28;1498;-80
2022/01/13 08:31:04;;;;;;;;;;;;;;;;;;5061784;28;1227;-81
2022/01/13 08:33:30;;;;;;;;;;;;;;;;;;5062953;28;1239;-79
2022/01/13 08:35:55;;;;;;;;;;;;;;;;;;5065741;28;1155;-80
2022/01/13 08:38:21;;;;;;;;;;;;;;;;;;5052772;28;1286;-80
2022/01/13 08:40:48;;;;;;;;;;;;;;;;;;5069136;28;1988;-80
2022/01/13 08:43:14;;;;;;;;;;;;;;;;;;5044790;28;1294;-81
2022/01/13 08:45:39;;;;;;;;;;;;;;;;;;5058706;28;1326;-80
2022/01/13 08:48:11;;;;;;;;;;;;;;;;;;5035162;28;1372;-80
2022/01/13 08:50:36;;;;;;;;;;;;;;;;;;5080637;28;1116;-82
2022/01/13 08:53:07;;;;;;;;;;;;;;;;;;5085376;28;1215;-80
2022/01/13 08:55:33;;;;;;;;;;;;;;;;;;5088354;28;1215;-85
2022/01/13 08:57:58;;;;;;;;;;;;;;;;;;5077834;28;1220;-83
2022/01/13 09:00:23;;;;;;;;;;;;;;;;;;5080694;28;1984;-84
2022/01/13 09:02:48;;;;;;;;;;;;;;;;;;5085302;28;1235;-84
2022/01/13 09:05:15;;;;;;;;;;;;;;;;;;5059622;28;1235;-84
2022/01/13 09:07:40;;;;;;;;;;;;;;;;;;5082701;28;1279;-83
2022/01/13 09:10:09;;;;;;;;;;;;;;;;;;5086837;28;1175;-85
2022/01/13 09:12:35;;;;;;;;;;;;;;;;;;5082062;28;1096;-81
2022/01/13 09:15:14;;;;;;;;;;;;;;;;;;5047583;28;1167;-79
2022/01/13 09:17:42;;;;;;;;;;;;;;;;;;5064883;28;1235;-85
2022/01/13 09:20:11;;;;;;;;;;;;;;;;;;5067520;28;1953;-83
2022/01/13 09:22:36;;;;;;;;;;;;;;;;;;5084076;28;1426;-85
2022/01/13 09:25:02;;;;;;;;;;;;;;;;;;5070175;28;1203;-83
2022/01/13 09:27:27;;;;;;;;;;;;;;;;;;5084660;28;1315;-84
2022/01/13 09:29:52;;;;;;;;;;;;;;;;;;5080070;28;1270;-85
2022/01/13 09:32:18;;;;;;;;;;;;;;;;;;5064803;28;1184;-83
2022/01/13 09:34:43;;;;;;;;;;;;;;;;;;5064051;28;1194;-83
2022/01/13 09:37:12;;;;;;;;;;;;;;;;;;5064577;28;1239;-82
2022/01/13 09:39:37;;;;;;;;;;;;;;;;;;5084298;28;1942;-82
2022/01/13 09:42:04;;;;;;;;;;;;;;;;;;5067795;28;1303;-83
2022/01/13 09:44:29;;;;;;;;;;;;;;;;;;5083520;28;1092;-83
2022/01/13 09:46:55;;;;;;;;;;;;;;;;;;5066389;28;1276;-82
2022/01/13 09:49:20;;;;;;;;;;;;;;;;;;5082006;28;1154;-83
2022/01/13 09:51:46;;;;;;;;;;;;;;;;;;5086635;28;1163;-83
2022/01/13 09:54:16;;;;;;;;;;;;;;;;;;5084725;28;1148;-81
2022/01/13 09:56:41;;;;;;;;;;;;;;;;;;5069728;28;1187;-81
2022/01/13 09:59:07;;;;;;;;;;;;;;;;;;5078424;28;1901;-83
2022/01/13 10:01:33;;;;;;;;;;;;;;;;;;5067551;28;1203;-87
2022/01/13 10:03:58;;;;;;;;;;;;;;;;;;5089730;28;1152;-81
2022/01/13 10:06:24;;;;;;;;;;;;;;;;;;5082931;28;1168;-87
2022/01/13 10:08:51;;;;;;;;;;;;;;;;;;5089324;28;1291;-88
2022/01/13 10:11:27;;;;;;;;;;;;;;;;;;5073812;28;1233;-88
2022/01/13 10:14:16;;;;;;;;;;;;;;;;;;5081977;28;1180;-87
2022/01/13 10:16:45;;;;;;;;;;;;;;;;;;5080183;28;1218;-88
2022/01/13 10:19:26;;;;;;;;;;;;;;;;;;5082959;28;1913;-88
2022/01/13 10:21:57;;;;;;;;;;;;;;;;;;5084723;28;1284;-87
2022/01/13 10:24:24;;;;;;;;;;;;;;;;;;5089137;28;1085;-87
2022/01/13 10:27:00;;;;;;;;;;;;;;;;;;5085798;28;1303;-88
2022/01/13 10:29:35;;;;;;;;;;;;;;;;;;5071195;28;1205;-87
2022/01/13 10:32:01;;;;;;;;;;;;;;;;;;5058539;28;1274;-87
2022/01/13 10:34:26;;;;;;;;;;;;;;;;;;5065491;28;1290;-85
2022/01/13 10:37:06;;;;;;;;;;;;;;;;;;5071806;28;1276;-86
2022/01/13 10:39:56;;;;;;;;;;;;;;;;;;5063465;28;2015;-79
2022/01/13 10:45:22;;;;;;;;;;;;;;;;;;5064915;28;1074;-77
2022/01/13 10:47:54;;;;;;;;;;;;;;;;;;5074602;28;1213;-78
2022/01/13 10:50:37;;;;;;;;;;;;;;;;;;5081630;28;1198;-78
2022/01/13 10:53:04;;;;;;;;;;;;;;;;;;5082949;28;1544;-78
2022/01/13 10:55:31;;;;;;;;;;;;;;;;;;5081827;28;1324;-76
2022/01/13 10:57:57;;;;;;;;;;;;;;;;;;5076481;28;1353;-79
2022/01/13 11:00:23;;;;;;;;;;;;;;;;;;5063233;28;1907;-78
2022/01/13 11:02:59;;;;;;;;;;;;;;;;;;5080499;28;1169;-80
2022/01/13 11:05:25;;;;;;;;;;;;;;;;;;5081842;28;1187;-79
2022/01/13 11:07:50;;;;;;;;;;;;;;;;;;5083203;28;1301;-77
2022/01/13 11:10:22;;;;;;;;;;;;;;;;;;5079745;28;1302;-78
2022/01/13 11:12:55;;;;;;;;;;;;;;;;;;5076153;28;1171;-78
2022/01/13 11:15:25;;;;;;;;;;;;;;;;;;5070598;28;1174;-87
2022/01/13 11:17:54;;;;;;;;;;;;;;;;;;5088030;28;1307;-91
2022/01/13 11:20:23;;;;;;;;;;;;;;;;;;5080378;28;1960;-89
2022/01/13 11:22:49;;;;;;;;;;;;;;;;;;5074069;28;1334;-88
2022/01/13 11:25:24;;;;;;;;;;;;;;;;;;5086673;28;1267;-88
2022/01/13 11:27:50;;;;;;;;;;;;;;;;;;5074636;28;1184;-83
2022/01/13 11:30:22;;;;;;;;;;;;;;;;;;5065296;28;1145;-81
2022/01/13 11:32:48;;;;;;;;;;;;;;;;;;5064866;28;1128;-81
2022/01/13 11:35:15;;;;;;;;;;;;;;;;;;5076405;28;1336;-76
2022/01/13 11:37:41;;;;;;;;;;;;;;;;;;5083475;28;1301;-78
2022/01/13 11:40:26;;;;;;;;;;;;;;;;;;5085010;28;1914;-77
2022/01/13 11:42:52;;;;;;;;;;;;;;;;;;5083932;28;1124;-79
2022/01/13 11:45:19;;;;;;;;;;;;;;;;;;5065530;28;1270;-77
2022/01/13 11:47:45;;;;;;;;;;;;;;;;;;5061275;28;1467;-77
2022/01/13 11:50:18;;;;;;;;;;;;;;;;;;5064654;28;1219;-77
2022/01/13 11:52:50;;;;;;;;;;;;;;;;;;5061768;28;1124;-77
2022/01/13 11:55:32;;;;;;;;;;;;;;;;;;5067643;28;1079;-76
2022/01/13 11:58:25;;;;;;;;;;;;;;;;;;5065870;28;1213;-77
2022/01/13 12:00:53;;;;;;;;;;;;;;;;;;5062890;28;1945;-77
2022/01/13 12:03:32;;;;;;;;;;;;;;;;;;5064947;28;1156;-77
2022/01/13 12:06:01;;;;;;;;;;;;;;;;;;5064095;28;1364;-77
2022/01/13 12:08:56;;;;;;;;;;;;;;;;;;5074059;28;1241;-76
2022/01/13 12:11:40;;;;;;;;;;;;;;;;;;5062616;28;1159;-77
2022/01/13 12:14:28;;;;;;;;;;;;;;;;;;5065360;28;1348;-76
2022/01/13 12:17:00;;;;;;;;;;;;;;;;;;5073610;28;1221;-75
2022/01/13 12:19:38;;;;;;;;;;;;;;;;;;5081798;28;1945;-75
2022/01/13 12:22:09;;;;;;;;;;;;;;;;;;5085322;28;1270;-75
2022/01/13 12:24:55;;;;;;;;;;;;;;;;;;5064130;28;1081;-77
2022/01/13 12:27:26;;;;;;;;;;;;;;;;;;5072073;28;1287;-76
2022/01/13 12:29:52;;;;;;;;;;;;;;;;;;5067882;28;1333;-76
2022/01/13 12:32:33;;;;;;;;;;;;;;;;;;5090320;28;1191;-76
2022/01/13 12:34:59;;;;;;;;;;;;;;;;;;5069710;28;1124;-76
2022/01/13 12:37:31;;;;;;;;;;;;;;;;;;5061930;28;1217;-76
2022/01/13 12:40:03;;;;;;;;;;;;;;;;;;5063721;28;1971;-75
2022/01/13 12:42:41;;;;;;;;;;;;;;;;;;5063353;28;1200;-76
2022/01/13 12:47:51;;;;;;;;;;;;;;;;;;5063313;28;1020;-76
2022/01/13 12:50:18;;;;;;;;;;;;;;;;;;5046585;28;1328;-76
2022/01/13 12:52:43;;;;;;;;;;;;;;;;;;5069081;28;1332;-80
2022/01/13 12:55:08;;;;;;;;;;;;;;;;;;5067206;28;1178;-80
2022/01/13 12:57:34;;;;;;;;;;;;;;;;;;5064724;28;1331;-80
2022/01/13 12:59:59;;;;;;;;;;;;;;;;;;5065020;28;1957;-80
2022/01/13 13:02:47;;;;;;;;;;;;;;;;;;5063568;28;1302;-81
2022/01/13 13:05:52;;;;;;;;;;;;;;;;;;5063939;28;1547;-80
2022/01/13 13:08:37;;;;;;;;;;;;;;;;;;5044135;28;1289;-80
2022/01/13 13:11:05;;;;;;;;;;;;;;;;;;5063169;28;1204;-80
2022/01/13 13:13:40;;;;;;;;;;;;;;;;;;5066446;28;1219;-81
2022/01/13 13:16:06;;;;;;;;;;;;;;;;;;5062827;28;1171;-81
2022/01/13 13:18:35;;;;;;;;;;;;;;;;;;5059958;28;1273;-81
2022/01/13 13:21:02;;;;;;;;;;;;;;;;;;5065288;28;1894;-80
2022/01/13 13:23:35;;;;;;;;;;;;;;;;;;5067990;28;1270;-79
2022/01/13 13:26:09;;;;;;;;;;;;;;;;;;5084651;28;1252;-81
2022/01/13 13:28:41;;;;;;;;;;;;;;;;;;5068048;28;1272;-81
2022/01/13 13:31:16;;;;;;;;;;;;;;;;;;5068837;28;1448;-80
2022/01/13 13:33:49;;;;;;;;;;;;;;;;;;5059713;28;1259;-80
2022/01/13 13:36:14;;;;;;;;;;;;;;;;;;5065811;28;1115;-78
2022/01/13 13:39:06;;;;;;;;;;;;;;;;;;5068686;28;1187;-78
2022/01/13 13:41:45;;;;;;;;;;;;;;;;;;5063056;28;1913;-79
2022/01/13 13:44:13;;;;;;;;;;;;;;;;;;5081771;28;1172;-80
2022/01/13 13:46:38;;;;;;;;;;;;;;;;;;5089062;28;1213;-80
2022/01/13 13:49:05;;;;;;;;;;;;;;;;;;5089130;28;1218;-79
2022/01/13 13:51:39;;;;;;;;;;;;;;;;;;5059948;28;1524;-79
2022/01/13 13:54:27;;;;;;;;;;;;;;;;;;5064860;28;1116;-84
2022/01/13 13:56:55;;;;;;;;;;;;;;;;;;5061163;28;1300;-80
2022/01/13 13:59:43;;;;;;;;;;;;;;;;;;5055381;28;1965;-78
2022/01/13 14:02:12;;;;;;;;;;;;;;;;;;5049721;28;1288;-78
2022/01/13 14:04:41;;;;;;;;;;;;;;;;;;5055759;28;1178;-79
2022/01/13 14:07:26;;;;;;;;;;;;;;;;;;5063895;28;1210;-79
2022/01/13 14:10:03;;;;;;;;;;;;;;;;;;5072819;28;1509;-79
2022/01/13 14:12:30;;;;;;;;;;;;;;;;;;5083502;28;1305;-79
2022/01/13 14:14:55;;;;;;;;;;;;;;;;;;5082782;28;1143;-78
2022/01/13 14:17:31;;;;;;;;;;;;;;;;;;5065321;28;1193;-79
2022/01/13 14:20:00;;;;;;;;;;;;;;;;;;5064473;28;1898;-79
2022/01/13 14:22:26;;;;;;;;;;;;;;;;;;5046915;28;1324;-80
2022/01/13 14:24:52;;;;;;;;;;;;;;;;;;5061888;28;1292;-80
2022/01/13 14:27:17;;;;;;;;;;;;;;;;;;5064617;28;1192;-79
2022/01/13 14:29:49;;;;;;;;;;;;;;;;;;5063151;28;1093;-81
2022/01/13 14:32:15;;;;;;;;;;;;;;;;;;5060666;28;1234;-80
2022/01/13 14:34:42;;;;;;;;;;;;;;;;;;5058572;28;1517;-80
2022/01/13 14:37:08;;;;;;;;;;;;;;;;;;5063331;28;1273;-80
2022/01/13 14:39:40;;;;;;;;;;;;;;;;;;5045813;28;1910;-80
2022/01/13 14:42:10;;;;;;;;;;;;;;;;;;5062841;28;1247;-80
2022/01/13 14:44:43;;;;;;;;;;;;;;;;;;5063549;28;1230;-80
2022/01/13 14:47:08;;;;;;;;;;;;;;;;;;5044357;28;1320;-80
2022/01/13 14:49:44;;;;;;;;;;;;;;;;;;5073110;28;1175;-80
2022/01/13 14:52:10;;;;;;;;;;;;;;;;;;5065726;28;1288;-80
2022/01/13 14:54:43;;;;;;;;;;;;;;;;;;5074545;28;1174;-80
2022/01/13 14:57:08;;;;;;;;;;;;;;;;;;5054279;28;1300;-80
2022/01/13 14:59:44;;;;;;;;;;;;;;;;;;5066126;28;1890;-79
2022/01/13 15:02:09;;;;;;;;;;;;;;;;;;5066725;28;1150;-80
2022/01/13 15:04:34;;;;;;;;;;;;;;;;;;5048180;28;1199;-80
2022/01/13 15:07:00;;;;;;;;;;;;;;;;;;5066372;28;1263;-80
2022/01/13 15:09:25;;;;;;;;;;;;;;;;;;5066296;28;1228;-78
2022/01/13 15:11:51;;;;;;;;;;;;;;;;;;5063283;28;1499;-80
2022/01/13 15:14:16;;;;;;;;;;;;;;;;;;5065299;28;1187;-79
2022/01/13 15:16:44;;;;;;;;;;;;;;;;;;5062220;28;1262;-79
2022/01/13 15:19:12;;;;;;;;;;;;;;;;;;5062680;28;1245;-79
2022/01/13 15:21:46;;;;;;;;;;;;;;;;;;5048265;28;1894;-81
2022/01/13 15:24:12;;;;;;;;;;;;;;;;;;5065545;28;992;-80
2022/01/13 15:26:37;;;;;;;;;;;;;;;;;;5065946;28;1176;-80
2022/01/13 15:29:03;;;;;;;;;;;;;;;;;;5067041;28;1257;-80
2022/01/13 15:31:28;;;;;;;;;;;;;;;;;;5068182;28;1160;-80
2022/01/13 15:33:54;;;;;;;;;;;;;;;;;;5043972;28;1344;-80
2022/01/13 15:36:23;;;;;;;;;;;;;;;;;;5051455;28;1302;-80
2022/01/13 15:38:49;;;;;;;;;;;;;;;;;;5081101;28;1241;-80
2022/01/13 15:41:15;;;;;;;;;;;;;;;;;;5065250;28;1907;-80
2022/01/13 15:43:47;;;;;;;;;;;;;;;;;;5065203;28;1195;-78
2022/01/13 15:46:12;;;;;;;;;;;;;;;;;;5067307;28;1157;-79
2022/01/13 15:48:37;;;;;;;;;;;;;;;;;;5055256;28;1294;-81
2022/01/13 15:51:02;;;;;;;;;;;;;;;;;;5067245;28;1233;-79
2022/01/13 15:53:28;;;;;;;;;;;;;;;;;;5085657;28;1164;-79
2022/01/13 15:55:54;;;;;;;;;;;;;;;;;;5079441;28;1191;-80
2022/01/13 15:58:19;;;;;;;;;;;;;;;;;;5067915;28;1125;-80
2022/01/13 16:00:46;;;;;;;;;;;;;;;;;;5064248;28;1898;-81
2022/01/13 16:03:12;;;;;;;;;;;;;;;;;;5047373;28;1140;-81
2022/01/13 16:05:37;;;;;;;;;;;;;;;;;;5064859;28;1116;-80
2022/01/13 16:08:03;;;;;;;;;;;;;;;;;;5072376;28;1168;-80
2022/01/13 16:10:28;;;;;;;;;;;;;;;;;;5085734;28;1203;-81
2022/01/13 16:12:54;;;;;;;;;;;;;;;;;;5085072;28;1267;-79
2022/01/13 16:15:20;;;;;;;;;;;;;;;;;;5086539;28;1467;-80
2022/01/13 16:17:49;;;;;;;;;;;;;;;;;;5084298;28;1274;-80
2022/01/13 16:20:14;;;;;;;;;;;;;;;;;;5079759;28;1889;-80
2022/01/13 16:22:39;;;;;;;;;;;;;;;;;;5085765;28;1194;-80
2022/01/13 16:25:05;;;;;;;;;;;;;;;;;;5085318;28;1484;-80
2022/01/13 16:27:31;;;;;;;;;;;;;;;;;;5067435;28;1191;-81
2022/01/13 16:29:59;;;;;;;;;;;;;;;;;;5047111;28;1292;-80
2022/01/13 16:32:29;;;;;;;;;;;;;;;;;;5066482;28;1187;-80
2022/01/13 16:34:55;;;;;;;;;;;;;;;;;;5062374;28;1219;-80
2022/01/13 16:37:21;;;;;;;;;;;;;;;;;;5066026;28;1632;-80
2022/01/13 16:39:47;;;;;;;;;;;;;;;;;;5067607;28;1898;-80
2022/01/13 16:42:13;;;;;;;;;;;;;;;;;;5067271;28;1392;-80
2022/01/13 16:44:42;;;;;;;;;;;;;;;;;;5066265;28;1349;-79
2022/01/13 16:47:10;;;;;;;;;;;;;;;;;;5047922;28;1186;-80
2022/01/13 16:49:37;;;;;;;;;;;;;;;;;;5075259;28;1163;-78
2022/01/13 16:52:06;;;;;;;;;;;;;;;;;;5067365;28;1093;-78
2022/01/13 16:54:31;;;;;;;;;;;;;;;;;;5064905;28;1219;-78
2022/01/13 16:56:57;;;;;;;;;;;;;;;;;;5064374;28;1191;-77
2022/01/13 16:59:22;;;;;;;;;;;;;;;;;;5078634;28;1886;-78
2022/01/13 17:01:47;;;;;;;;;;;;;;;;;;5079117;28;1276;-77
2022/01/13 17:04:13;;;;;;;;;;;;;;;;;;5047668;28;1219;-77
2022/01/13 17:06:38;;;;;;;;;;;;;;;;;;5047529;28;1220;-76
2022/01/13 17:09:04;;;;;;;;;;;;;;;;;;5075581;28;1084;-76
2022/01/13 17:11:29;;;;;;;;;;;;;;;;;;5064250;28;1304;-78
2022/01/13 17:13:55;;;;;;;;;;;;;;;;;;5077595;28;1290;-77
2022/01/13 17:16:23;;;;;;;;;;;;;;;;;;5052177;28;1202;-76
2022/01/13 17:18:48;;;;;;;;;;;;;;;;;;5040816;28;1245;-77
2022/01/13 17:21:13;;;;;;;;;;;;;;;;;;5058759;28;1929;-78
2022/01/13 17:23:39;;;;;;;;;;;;;;;;;;5059622;28;1207;-77
2022/01/13 17:26:04;;;;;;;;;;;;;;;;;;5058387;28;1077;-77
2022/01/13 17:28:37;;;;;;;;;;;;;;;;;;5055194;28;1117;-77
2022/01/13 17:31:09;;;;;;;;;;;;;;;;;;5060791;28;1048;-76
2022/01/13 17:33:34;;;;;;;;;;;;;;;;;;5075017;28;1114;-78
2022/01/13 17:36:00;;;;;;;;;;;;;;;;;;5059278;28;1210;-77
2022/01/13 17:38:29;;;;;;;;;;;;;;;;;;5076831;28;1308;-78
2022/01/13 17:40:56;;;;;;;;;;;;;;;;;;5076352;28;1910;-77
2022/01/13 17:43:21;;;;;;;;;;;;;;;;;;5076889;28;1280;-78
2022/01/13 17:45:48;;;;;;;;;;;;;;;;;;5078548;28;1171;-78
2022/01/13 17:48:15;;;;;;;;;;;;;;;;;;5075583;28;1158;-78